TAF

Looking Back 6 Hours

Worst Weather Category
LocationTimeVisiblityCeilingWeatherWind SpeedWind Gust
KPBF221130Z1600Light Rain E 10E 16
KPBF221039Z1600Light Rain E 10E 16

  • TAFPBF TAF KPBF 221130Z 2212/2312 01008KT P6SM OVC008
          FM221500 08010G16KT 5SM -RA BR OVC011
          FM230000 06004KT 1SM -RA BR OVC006 =

  • TAFPBF TAF AMD KPBF 221039Z 2211/2306 03009KT P6SM OVC009
          FM221500 08010G16KT 5SM -RA BR OVC011
          FM230000 06004KT 1SM -RA BR OVC006 =